Startpagina
METAR-TAF:

METAR-TAF

Vliegvelden :

La Seu d'Urgell, Spanje

breedte: 42-20-29N, lengte: 001-24-17E, hoogte: 802 m

Actueel weer

Dit bericht is 9 uur en het 29 minuten geleden gemaakt, om 17:00 UTC
Wind 6 kt uit het zuidwesten, variërend tussen het zuidzuidwesten en het westen
Temperatuur 30°C
Vochtigheid 29%
Druk 1019 hPa
Zicht 10 km of meer
Verspreide wolken op 6500 ft

METAR: LESU 251700Z 22006KT 200V260 9999 SCT065 30/10 Q1019

Tijdstip: 04:29 (02:29 UTC)

Verwachting

Dit bericht is 12 uur en het 29 minuten geleden gemaakt, om 14:00 UTC
Verwachting geldig van 25 om 15 UTC tot 26 om 15 UTC
Wind 10 kt uit het zuidzuidwesten
Zicht 10 km of meer
Verspreide wolken op 6000 ft
Wijzigt naar
van 25 om 17 UTC tot 25 om 19 UTC
Wind 3 kt uit variabele richting
Wijzigt naar
van 26 om 10 UTC tot 26 om 12 UTC
Wind 10 kt uit het zuidzuidwesten

TAF: LESU 251400Z 2515/2615 21010KT 9999 SCT060 TX30/2614Z TN13/2605Z BECMG 2517/2519 VRB03KT BECMG 2610/2612 21010KT

Waarnemingen en weersverwachtingen van meer dan 4000 vliegvelden (METAR en TAF).

De beschikbare stations zijn de gele en rode punten op de kaart.

Ga met uw muis naar het station om de naam te zien.

Klik dan om waarnemingen en weersverwachtingen te zien.

kaart wijzigen: klik op de groene knoppen met een zwart kruis om in te zoomen, op de groene knop met een streepje om uit te zoomen of op de groene pijlen voor aangrenzende kaarten.


METAR-TAF: